NAPEX1 EDDH-EDDF
Flight info
| Callsign | NAPEX1 |
|---|---|
| Flight time | 0h 58m |
| Altitude | 30000 |
| Route | AMLUH2C AMLUH M852 DENIX DCT RIMET/N0445F310 T157 KOKEB/N0423F230 T157 KERAX KERAX5A |
| Aircraft | C25C/L-SG/L |
Departure
| Time | 2026-05-07 14:25 |
|---|---|
| Airport | Hamburg Helmut Schmidt Airport (EDDH) |
Arrival
| Time | 2026-05-07 15:24 |
|---|---|
| Airport | Frankfurt Main Airport (EDDF) |
| Time | Latitude | Longitude | Altitude | Speed | Heading |
|---|---|---|---|---|---|
| 2026-05-07 14:14 | 53.63075 | 10.00372 | 39 ft | 0 kts | 96° |
| 2026-05-07 14:20 | 53.63075 | 10.00371 | 39 ft | 2 kts | 96° |
| 2026-05-07 14:21 | 53.63076 | 10.00345 | 39 ft | 2 kts | 96° |
| 2026-05-07 14:21 | 53.63078 | 10.00318 | 39 ft | 2 kts | 96° |
| 2026-05-07 14:21 | 53.63080 | 10.00291 | 39 ft | 2 kts | 96° |
| 2026-05-07 14:21 | 53.63083 | 10.00268 | 39 ft | 2 kts | 153° |
| 2026-05-07 14:22 | 53.63088 | 10.00265 | 39 ft | 0 kts | 185° |
| 2026-05-07 14:23 | 53.63086 | 10.00265 | 39 ft | 2 kts | 185° |
| 2026-05-07 14:23 | 53.63061 | 10.00251 | 39 ft | 9 kts | 208° |
| 2026-05-07 14:23 | 53.62941 | 10.00124 | 39 ft | 20 kts | 212° |
| 2026-05-07 14:24 | 53.62857 | 10.00021 | 39 ft | 0 kts | 238° |
| 2026-05-07 14:24 | 53.62856 | 10.00017 | 39 ft | 2 kts | 240° |
| 2026-05-07 14:24 | 53.62841 | 9.99971 | 40 ft | 8 kts | 242° |
| 2026-05-07 14:24 | 53.62814 | 9.99850 | 41 ft | 13 kts | 263° |
| 2026-05-07 14:25 | 53.62871 | 9.99742 | 40 ft | 22 kts | 332° |
| 2026-05-07 14:25 | 53.63445 | 9.99333 | 92 ft | 148 kts | 335° |
| 2026-05-07 14:25 | 53.64548 | 9.98167 | 738 ft | 222 kts | 329° |
| 2026-05-07 14:25 | 53.66002 | 9.96907 | 1967 ft | 230 kts | 343° |
| 2026-05-07 14:26 | 53.67383 | 9.95894 | 3053 ft | 205 kts | 336° |
| 2026-05-07 14:26 | 53.68591 | 9.94857 | 3966 ft | 185 kts | 344° |
| 2026-05-07 14:26 | 53.69399 | 9.94682 | 4469 ft | 172 kts | 7° |
| 2026-05-07 14:26 | 53.71021 | 9.94679 | 5000 ft | 189 kts | 1° |
| 2026-05-07 14:27 | 53.71986 | 9.94769 | 5012 ft | 225 kts | 15° |
| 2026-05-07 14:27 | 53.73718 | 9.97224 | 5027 ft | 272 kts | 62° |
| 2026-05-07 14:27 | 53.74231 | 10.00245 | 5028 ft | 265 kts | 81° |
| 2026-05-07 14:27 | 53.74217 | 10.03290 | 5025 ft | 258 kts | 102° |
| 2026-05-07 14:28 | 53.73499 | 10.06046 | 5024 ft | 255 kts | 117° |
| 2026-05-07 14:28 | 53.72581 | 10.08583 | 5027 ft | 252 kts | 120° |
| 2026-05-07 14:28 | 53.71982 | 10.10245 | 5026 ft | 250 kts | 118° |
| 2026-05-07 14:28 | 53.71128 | 10.12781 | 5026 ft | 247 kts | 117° |
| 2026-05-07 14:29 | 53.70020 | 10.16127 | 5028 ft | 245 kts | 116° |
| 2026-05-07 14:29 | 53.69463 | 10.17819 | 5021 ft | 244 kts | 117° |
| 2026-05-07 14:29 | 53.67957 | 10.20573 | 5011 ft | 250 kts | 149° |
| 2026-05-07 14:29 | 53.66864 | 10.21311 | 5009 ft | 251 kts | 158° |
| 2026-05-07 14:30 | 53.65186 | 10.22154 | 5010 ft | 251 kts | 162° |
| 2026-05-07 14:30 | 53.63483 | 10.22837 | 5011 ft | 251 kts | 163° |
| 2026-05-07 14:30 | 53.61825 | 10.23587 | 5014 ft | 250 kts | 160° |
| 2026-05-07 14:30 | 53.60126 | 10.24367 | 5011 ft | 250 kts | 161° |
| 2026-05-07 14:31 | 53.58470 | 10.25141 | 5011 ft | 250 kts | 161° |
| 2026-05-07 14:31 | 53.56796 | 10.25905 | 5010 ft | 250 kts | 162° |
| 2026-05-07 14:31 | 53.55125 | 10.26669 | 5021 ft | 249 kts | 161° |
| 2026-05-07 14:31 | 53.53446 | 10.27443 | 5022 ft | 250 kts | 162° |
| 2026-05-07 14:32 | 53.51774 | 10.28203 | 5021 ft | 249 kts | 162° |
| 2026-05-07 14:32 | 53.50094 | 10.28962 | 5021 ft | 249 kts | 162° |
| 2026-05-07 14:32 | 53.48428 | 10.29738 | 5020 ft | 249 kts | 162° |
| 2026-05-07 14:32 | 53.46750 | 10.30489 | 5018 ft | 249 kts | 162° |
| 2026-05-07 14:33 | 53.45023 | 10.30642 | 5008 ft | 254 kts | 188° |
| 2026-05-07 14:33 | 53.43280 | 10.29919 | 5478 ft | 257 kts | 190° |
| 2026-05-07 14:33 | 53.41552 | 10.29348 | 6908 ft | 254 kts | 188° |
| 2026-05-07 14:33 | 53.39815 | 10.28866 | 8029 ft | 258 kts | 186° |
| 2026-05-07 14:34 | 53.38017 | 10.28438 | 9187 ft | 263 kts | 187° |
| 2026-05-07 14:34 | 53.36154 | 10.27961 | 10001 ft | 282 kts | 188° |
| 2026-05-07 14:34 | 53.34184 | 10.27447 | 10904 ft | 288 kts | 189° |
| 2026-05-07 14:34 | 53.32192 | 10.26933 | 11910 ft | 292 kts | 188° |
| 2026-05-07 14:35 | 53.30163 | 10.26413 | 12893 ft | 297 kts | 189° |
| 2026-05-07 14:35 | 53.28107 | 10.25876 | 13825 ft | 302 kts | 188° |
| 2026-05-07 14:35 | 53.26011 | 10.25355 | 14650 ft | 306 kts | 189° |
| 2026-05-07 14:35 | 53.23899 | 10.24798 | 15463 ft | 309 kts | 189° |
| 2026-05-07 14:36 | 53.21786 | 10.24265 | 16256 ft | 313 kts | 189° |
| 2026-05-07 14:36 | 53.19625 | 10.23706 | 17066 ft | 317 kts | 190° |
| 2026-05-07 14:36 | 53.17441 | 10.23147 | 17898 ft | 320 kts | 191° |
| 2026-05-07 14:36 | 53.15230 | 10.22586 | 18697 ft | 323 kts | 190° |
| 2026-05-07 14:37 | 53.12992 | 10.22041 | 19443 ft | 327 kts | 187° |
| 2026-05-07 14:37 | 53.08400 | 10.22231 | 21033 ft | 335 kts | 178° |
| 2026-05-07 14:37 | 53.06082 | 10.22296 | 21808 ft | 338 kts | 182° |
| 2026-05-07 14:38 | 53.03700 | 10.22205 | 22627 ft | 341 kts | 183° |
| 2026-05-07 14:38 | 53.01347 | 10.22169 | 23369 ft | 345 kts | 181° |
| 2026-05-07 14:38 | 52.98931 | 10.22175 | 24046 ft | 348 kts | 181° |
| 2026-05-07 14:38 | 52.96500 | 10.22171 | 24611 ft | 352 kts | 182° |
| 2026-05-07 14:39 | 52.94044 | 10.22152 | 25151 ft | 355 kts | 181° |
| 2026-05-07 14:39 | 52.91558 | 10.22143 | 25703 ft | 358 kts | 181° |
| 2026-05-07 14:39 | 52.89056 | 10.22147 | 26189 ft | 362 kts | 181° |
| 2026-05-07 14:39 | 52.86536 | 10.22142 | 26683 ft | 365 kts | 181° |
| 2026-05-07 14:40 | 52.83978 | 10.22143 | 27209 ft | 367 kts | 181° |
| 2026-05-07 14:40 | 52.81446 | 10.22136 | 27664 ft | 371 kts | 181° |
| 2026-05-07 14:40 | 52.78862 | 10.22132 | 28136 ft | 373 kts | 181° |
| 2026-05-07 14:40 | 52.76260 | 10.22128 | 28657 ft | 374 kts | 180° |
| 2026-05-07 14:41 | 52.73659 | 10.22130 | 29205 ft | 373 kts | 181° |
| 2026-05-07 14:41 | 52.71071 | 10.22123 | 29734 ft | 372 kts | 181° |
| 2026-05-07 14:41 | 52.68461 | 10.22118 | 29986 ft | 378 kts | 180° |
| 2026-05-07 14:41 | 52.65788 | 10.22114 | 30012 ft | 389 kts | 180° |
| 2026-05-07 14:42 | 52.60282 | 10.22110 | 30077 ft | 403 kts | 180° |
| 2026-05-07 14:42 | 52.54619 | 10.22098 | 30087 ft | 418 kts | 180° |
| 2026-05-07 14:43 | 52.51616 | 10.22097 | 30085 ft | 426 kts | 181° |
| 2026-05-07 14:43 | 52.45612 | 10.22091 | 30086 ft | 437 kts | 181° |
| 2026-05-07 14:44 | 52.39472 | 10.22081 | 30084 ft | 445 kts | 181° |
| 2026-05-07 14:44 | 52.33280 | 10.22075 | 30085 ft | 450 kts | 181° |
| 2026-05-07 14:45 | 52.27036 | 10.22068 | 30082 ft | 438 kts | 181° |
| 2026-05-07 14:45 | 52.24047 | 10.22061 | 30079 ft | 423 kts | 181° |
| 2026-05-07 14:45 | 52.21152 | 10.22060 | 30070 ft | 410 kts | 181° |
| 2026-05-07 14:46 | 52.15397 | 10.22051 | 30064 ft | 420 kts | 181° |
| 2026-05-07 14:46 | 52.09513 | 10.22042 | 30069 ft | 431 kts | 181° |
| 2026-05-07 14:47 | 52.03469 | 10.22035 | 30071 ft | 437 kts | 181° |
| 2026-05-07 14:47 | 51.97363 | 10.22026 | 30071 ft | 440 kts | 181° |
| 2026-05-07 14:48 | 51.91274 | 10.22019 | 30078 ft | 436 kts | 181° |
| 2026-05-07 14:48 | 51.85235 | 10.22010 | 30076 ft | 432 kts | 181° |
| 2026-05-07 14:49 | 51.79279 | 10.22001 | 30070 ft | 429 kts | 181° |
| 2026-05-07 14:49 | 51.73330 | 10.21993 | 30063 ft | 426 kts | 181° |
| 2026-05-07 14:50 | 51.67411 | 10.21982 | 30070 ft | 426 kts | 180° |
| 2026-05-07 14:50 | 51.61486 | 10.21978 | 30059 ft | 425 kts | 180° |
| 2026-05-07 14:51 | 51.55580 | 10.21968 | 30058 ft | 424 kts | 180° |
| 2026-05-07 14:51 | 51.49676 | 10.21962 | 30051 ft | 424 kts | 180° |
| 2026-05-07 14:52 | 51.43815 | 10.21955 | 30053 ft | 424 kts | 180° |
| 2026-05-07 14:52 | 51.37921 | 10.21947 | 30054 ft | 424 kts | 180° |
| 2026-05-07 14:53 | 51.32027 | 10.21937 | 30047 ft | 424 kts | 180° |
| 2026-05-07 14:53 | 51.26130 | 10.21797 | 30046 ft | 423 kts | 181° |
| 2026-05-07 14:54 | 51.20242 | 10.21694 | 30049 ft | 423 kts | 180° |
| 2026-05-07 14:54 | 51.14398 | 10.21581 | 30043 ft | 423 kts | 181° |
| 2026-05-07 14:55 | 51.08511 | 10.21469 | 30041 ft | 423 kts | 181° |
| 2026-05-07 14:55 | 51.05560 | 10.21414 | 29934 ft | 426 kts | 181° |
| 2026-05-07 14:55 | 51.02693 | 10.21362 | 29436 ft | 397 kts | 181° |
| 2026-05-07 14:56 | 51.00019 | 10.21307 | 28919 ft | 372 kts | 181° |
| 2026-05-07 14:56 | 50.97507 | 10.21263 | 28400 ft | 352 kts | 181° |
| 2026-05-07 14:56 | 50.95119 | 10.21215 | 27892 ft | 336 kts | 181° |
| 2026-05-07 14:56 | 50.92824 | 10.21176 | 27392 ft | 323 kts | 181° |
| 2026-05-07 14:57 | 50.90640 | 10.21130 | 26905 ft | 313 kts | 181° |
| 2026-05-07 14:57 | 50.88500 | 10.20700 | 26291 ft | 316 kts | 200° |
| 2026-05-07 14:57 | 50.86408 | 10.19489 | 25521 ft | 328 kts | 188° |
| 2026-05-07 14:57 | 50.84127 | 10.19671 | 25070 ft | 329 kts | 177° |
| 2026-05-07 14:58 | 50.81938 | 10.18820 | 24654 ft | 327 kts | 209° |
| 2026-05-07 14:58 | 50.80274 | 10.16386 | 24076 ft | 332 kts | 235° |
| 2026-05-07 14:58 | 50.79164 | 10.13167 | 23461 ft | 336 kts | 243° |
| 2026-05-07 14:58 | 50.78111 | 10.09857 | 22862 ft | 337 kts | 242° |
| 2026-05-07 14:59 | 50.76941 | 10.06647 | 22261 ft | 337 kts | 237° |
| 2026-05-07 14:59 | 50.75498 | 10.03732 | 21648 ft | 338 kts | 227° |
| 2026-05-07 14:59 | 50.73806 | 10.01135 | 21032 ft | 339 kts | 224° |
| 2026-05-07 14:59 | 50.72109 | 9.98633 | 20412 ft | 339 kts | 224° |
| 2026-05-07 15:00 | 50.70476 | 9.95946 | 19801 ft | 340 kts | 228° |
| 2026-05-07 15:00 | 50.68884 | 9.93198 | 19184 ft | 340 kts | 228° |
| 2026-05-07 15:00 | 50.67254 | 9.90504 | 18562 ft | 339 kts | 227° |
| 2026-05-07 15:00 | 50.65607 | 9.87829 | 17904 ft | 338 kts | 227° |
| 2026-05-07 15:01 | 50.63980 | 9.85158 | 17282 ft | 336 kts | 227° |
| 2026-05-07 15:01 | 50.62607 | 9.82890 | 16761 ft | 334 kts | 227° |
| 2026-05-07 15:01 | 50.62320 | 9.82417 | 16651 ft | 334 kts | 228° |
| 2026-05-07 15:01 | 50.60712 | 9.79779 | 16042 ft | 333 kts | 227° |
| 2026-05-07 15:02 | 50.59111 | 9.77156 | 15435 ft | 332 kts | 227° |
| 2026-05-07 15:02 | 50.57515 | 9.74535 | 14821 ft | 331 kts | 228° |
| 2026-05-07 15:02 | 50.55918 | 9.71931 | 14223 ft | 330 kts | 227° |
| 2026-05-07 15:02 | 50.54329 | 9.69327 | 13599 ft | 330 kts | 228° |
| 2026-05-07 15:03 | 50.52744 | 9.66742 | 12992 ft | 328 kts | 227° |
| 2026-05-07 15:03 | 50.51164 | 9.64163 | 12392 ft | 327 kts | 228° |
| 2026-05-07 15:03 | 50.49588 | 9.61598 | 11795 ft | 326 kts | 227° |
| 2026-05-07 15:03 | 50.48058 | 9.59039 | 11196 ft | 324 kts | 232° |
| 2026-05-07 15:04 | 50.47111 | 9.55962 | 11054 ft | 306 kts | 254° |
| 2026-05-07 15:04 | 50.46463 | 9.52836 | 11050 ft | 303 kts | 253° |
| 2026-05-07 15:04 | 50.45848 | 9.49602 | 11052 ft | 316 kts | 257° |
| 2026-05-07 15:04 | 50.45259 | 9.46200 | 11056 ft | 329 kts | 255° |
| 2026-05-07 15:05 | 50.44590 | 9.42723 | 11057 ft | 337 kts | 254° |
| 2026-05-07 15:05 | 50.43908 | 9.39163 | 11056 ft | 344 kts | 254° |
| 2026-05-07 15:05 | 50.43215 | 9.35545 | 11058 ft | 348 kts | 255° |
| 2026-05-07 15:05 | 50.42529 | 9.31892 | 11056 ft | 351 kts | 255° |
| 2026-05-07 15:06 | 50.41824 | 9.28218 | 11058 ft | 353 kts | 255° |
| 2026-05-07 15:06 | 50.41131 | 9.24624 | 11053 ft | 331 kts | 252° |
| 2026-05-07 15:06 | 50.40329 | 9.21417 | 11048 ft | 309 kts | 250° |
| 2026-05-07 15:06 | 50.39653 | 9.18319 | 11043 ft | 293 kts | 253° |
| 2026-05-07 15:07 | 50.38742 | 9.15569 | 11035 ft | 283 kts | 228° |
| 2026-05-07 15:07 | 50.37197 | 9.13730 | 11040 ft | 275 kts | 216° |
| 2026-05-07 15:07 | 50.35628 | 9.12068 | 11038 ft | 269 kts | 214° |
| 2026-05-07 15:07 | 50.34059 | 9.10516 | 11040 ft | 266 kts | 214° |
| 2026-05-07 15:08 | 50.32448 | 9.08927 | 11042 ft | 281 kts | 213° |
| 2026-05-07 15:08 | 50.30787 | 9.07296 | 11046 ft | 281 kts | 214° |
| 2026-05-07 15:08 | 50.29135 | 9.05680 | 11038 ft | 279 kts | 213° |
| 2026-05-07 15:08 | 50.27489 | 9.04082 | 10940 ft | 280 kts | 213° |
| 2026-05-07 15:09 | 50.25800 | 9.02445 | 10390 ft | 292 kts | 213° |
| 2026-05-07 15:09 | 50.24093 | 9.00781 | 9596 ft | 288 kts | 214° |
| 2026-05-07 15:09 | 50.22406 | 8.99143 | 8452 ft | 289 kts | 213° |
| 2026-05-07 15:09 | 50.20712 | 8.97496 | 7311 ft | 284 kts | 213° |
| 2026-05-07 15:10 | 50.19042 | 8.95890 | 6212 ft | 280 kts | 213° |
| 2026-05-07 15:10 | 50.17393 | 8.94295 | 5152 ft | 279 kts | 213° |
| 2026-05-07 15:10 | 50.15753 | 8.92721 | 5052 ft | 268 kts | 213° |
| 2026-05-07 15:10 | 50.14213 | 8.91231 | 5044 ft | 255 kts | 214° |
| 2026-05-07 15:11 | 50.12705 | 8.89804 | 5040 ft | 254 kts | 214° |
| 2026-05-07 15:11 | 50.11195 | 8.88352 | 5041 ft | 256 kts | 213° |
| 2026-05-07 15:11 | 50.09666 | 8.86905 | 5041 ft | 258 kts | 213° |
| 2026-05-07 15:11 | 50.08242 | 8.85258 | 5167 ft | 252 kts | 228° |
| 2026-05-07 15:12 | 50.07159 | 8.83083 | 5065 ft | 256 kts | 234° |
| 2026-05-07 15:12 | 50.06495 | 8.80572 | 5042 ft | 254 kts | 267° |
| 2026-05-07 15:12 | 50.06576 | 8.77871 | 5045 ft | 253 kts | 273° |
| 2026-05-07 15:12 | 50.06618 | 8.75140 | 5050 ft | 252 kts | 276° |
| 2026-05-07 15:13 | 50.07362 | 8.72738 | 5039 ft | 252 kts | 316° |
| 2026-05-07 15:13 | 50.08914 | 8.71487 | 5043 ft | 254 kts | 339° |
| 2026-05-07 15:13 | 50.10467 | 8.70220 | 5035 ft | 253 kts | 328° |
| 2026-05-07 15:13 | 50.12021 | 8.68838 | 4698 ft | 265 kts | 332° |
| 2026-05-07 15:14 | 50.13752 | 8.67676 | 4324 ft | 274 kts | 340° |
| 2026-05-07 15:14 | 50.15576 | 8.66982 | 4375 ft | 266 kts | 350° |
| 2026-05-07 15:14 | 50.17363 | 8.67376 | 4486 ft | 263 kts | 26° |
| 2026-05-07 15:14 | 50.18615 | 8.69392 | 4595 ft | 263 kts | 61° |
| 2026-05-07 15:15 | 50.19220 | 8.72028 | 4721 ft | 260 kts | 71° |
| 2026-05-07 15:15 | 50.19739 | 8.74711 | 4847 ft | 257 kts | 73° |
| 2026-05-07 15:15 | 50.20198 | 8.77398 | 4973 ft | 255 kts | 73° |
| 2026-05-07 15:15 | 50.20662 | 8.80084 | 5004 ft | 258 kts | 73° |
| 2026-05-07 15:16 | 50.21119 | 8.82803 | 4983 ft | 262 kts | 73° |
| 2026-05-07 15:16 | 50.21518 | 8.85588 | 4952 ft | 265 kts | 85° |
| 2026-05-07 15:16 | 50.20987 | 8.88322 | 4878 ft | 271 kts | 126° |
| 2026-05-07 15:16 | 50.19515 | 8.90109 | 4789 ft | 272 kts | 156° |
| 2026-05-07 15:17 | 50.17741 | 8.91152 | 4687 ft | 274 kts | 161° |
| 2026-05-07 15:17 | 50.15938 | 8.92074 | 4562 ft | 271 kts | 169° |
| 2026-05-07 15:17 | 50.14119 | 8.91719 | 4421 ft | 266 kts | 208° |
| 2026-05-07 15:17 | 50.12835 | 8.89792 | 4291 ft | 260 kts | 243° |
| 2026-05-07 15:18 | 50.12421 | 8.87215 | 4217 ft | 233 kts | 265° |
| 2026-05-07 15:18 | 50.12073 | 8.84844 | 4134 ft | 219 kts | 252° |
| 2026-05-07 15:18 | 50.11580 | 8.82661 | 4053 ft | 210 kts | 253° |
| 2026-05-07 15:18 | 50.11084 | 8.80550 | 3963 ft | 205 kts | 252° |
| 2026-05-07 15:19 | 50.10590 | 8.78481 | 3872 ft | 202 kts | 252° |
| 2026-05-07 15:19 | 50.10102 | 8.76435 | 3714 ft | 203 kts | 252° |
| 2026-05-07 15:19 | 50.09645 | 8.74539 | 3462 ft | 169 kts | 252° |
| 2026-05-07 15:19 | 50.09257 | 8.72931 | 3222 ft | 155 kts | 252° |
| 2026-05-07 15:20 | 50.08891 | 8.71403 | 2999 ft | 148 kts | 252° |
| 2026-05-07 15:20 | 50.08533 | 8.69919 | 2789 ft | 145 kts | 251° |
| 2026-05-07 15:20 | 50.08184 | 8.68451 | 2573 ft | 145 kts | 252° |
| 2026-05-07 15:20 | 50.07829 | 8.66957 | 2363 ft | 149 kts | 251° |
| 2026-05-07 15:21 | 50.07470 | 8.65454 | 2141 ft | 144 kts | 251° |
| 2026-05-07 15:21 | 50.07133 | 8.64066 | 1935 ft | 132 kts | 252° |
| 2026-05-07 15:21 | 50.06820 | 8.62754 | 1749 ft | 127 kts | 252° |
| 2026-05-07 15:21 | 50.06518 | 8.61486 | 1566 ft | 123 kts | 252° |
| 2026-05-07 15:22 | 50.06221 | 8.60245 | 1390 ft | 121 kts | 253° |
| 2026-05-07 15:22 | 50.05933 | 8.59023 | 1209 ft | 118 kts | 251° |
| 2026-05-07 15:22 | 50.05656 | 8.57853 | 1036 ft | 113 kts | 251° |
| 2026-05-07 15:22 | 50.05394 | 8.56741 | 881 ft | 110 kts | 249° |
| 2026-05-07 15:23 | 50.05109 | 8.55664 | 728 ft | 106 kts | 249° |
| 2026-05-07 15:23 | 50.04890 | 8.54573 | 575 ft | 101 kts | 248° |
| 2026-05-07 15:23 | 50.04632 | 8.53604 | 438 ft | 94 kts | 248° |
| 2026-05-07 15:23 | 50.04418 | 8.52696 | 362 ft | 81 kts | 249° |
| 2026-05-07 15:24 | 50.04296 | 8.52192 | 356 ft | 23 kts | 250° |
| 2026-05-07 15:24 | 50.04244 | 8.51980 | 354 ft | 19 kts | 250° |
| 2026-05-07 15:24 | 50.04198 | 8.51779 | 354 ft | 21 kts | 249° |
| 2026-05-07 15:24 | 50.04122 | 8.51577 | 351 ft | 24 kts | 230° |
| 2026-05-07 15:25 | 50.03993 | 8.51393 | 349 ft | 27 kts | 219° |
| 2026-05-07 15:25 | 50.03839 | 8.51195 | 338 ft | 29 kts | 218° |
| 2026-05-07 15:25 | 50.03672 | 8.51229 | 347 ft | 27 kts | 123° |
| 2026-05-07 15:25 | 50.03598 | 8.51458 | 352 ft | 13 kts | 116° |
| 2026-05-07 15:26 | 50.03593 | 8.51472 | 352 ft | 4 kts | 116° |
| 2026-05-07 15:26 | 50.03560 | 8.51578 | 347 ft | 22 kts | 117° |
| 2026-05-07 15:26 | 50.03515 | 8.51840 | 354 ft | 32 kts | 83° |
| 2026-05-07 15:26 | 50.03544 | 8.52212 | 366 ft | 33 kts | 83° |
| 2026-05-07 15:27 | 50.03558 | 8.52337 | 369 ft | 0 kts | 70° |
| 2026-05-07 15:27 | 50.03559 | 8.52341 | 369 ft | 4 kts | 69° |
| 2026-05-07 15:27 | 50.03610 | 8.52394 | 370 ft | 12 kts | 340° |
| 2026-05-07 15:27 | 50.03666 | 8.52361 | 366 ft | 0 kts | 340° |